createdAt,value
2017-10-15T00:01:35.406Z,11.70
2017-10-15T00:04:03.270Z,12.40
2017-10-15T00:06:31.314Z,9.60
2017-10-15T00:08:58.791Z,9.77
2017-10-15T00:11:26.273Z,16.17
2017-10-15T00:13:54.188Z,16.10
2017-10-15T00:16:21.688Z,13.93
2017-10-15T00:18:49.128Z,9.80
2017-10-15T00:21:17.234Z,8.93
2017-10-15T00:23:44.651Z,9.77
2017-10-15T00:26:12.129Z,12.07
2017-10-15T00:28:39.615Z,10.73
2017-10-15T00:31:07.064Z,7.93
2017-10-15T00:33:34.564Z,19.87
2017-10-15T00:36:02.401Z,10.00
2017-10-15T00:38:29.866Z,10.30
2017-10-15T00:40:57.354Z,9.60
2017-10-15T00:43:25.195Z,8.77
2017-10-15T00:45:52.676Z,9.97
2017-10-15T00:48:20.544Z,11.37
2017-10-15T00:50:47.987Z,9.07
2017-10-15T00:53:15.456Z,9.27
2017-10-15T00:55:42.928Z,9.40
2017-10-15T00:58:10.381Z,10.60
2017-10-15T01:00:37.954Z,9.80
2017-10-15T01:03:05.449Z,9.23
2017-10-15T01:05:34.027Z,8.40
2017-10-15T01:08:01.470Z,10.17
2017-10-15T01:10:39.616Z,13.10
2017-10-15T01:13:07.053Z,7.93
2017-10-15T01:15:34.982Z,11.73
2017-10-15T01:18:02.512Z,12.50
2017-10-15T01:20:29.995Z,9.23
2017-10-15T01:22:58.487Z,12.43
2017-10-15T01:25:25.966Z,9.70
2017-10-15T01:27:53.429Z,8.37
2017-10-15T01:30:20.885Z,10.60
2017-10-15T01:32:48.371Z,9.97
2017-10-15T01:35:15.809Z,10.53
2017-10-15T01:37:43.262Z,8.47
2017-10-15T01:40:10.732Z,8.00
2017-10-15T01:42:38.229Z,7.43
2017-10-15T01:45:06.083Z,9.13
2017-10-15T01:47:33.581Z,10.77
2017-10-15T01:50:01.056Z,7.20
2017-10-15T01:52:28.549Z,9.00
2017-10-15T01:54:56.016Z,10.67
2017-10-15T01:57:23.579Z,9.83
2017-10-15T01:59:51.057Z,9.40
2017-10-15T02:02:18.530Z,12.80
2017-10-15T02:04:46.017Z,9.70
2017-10-15T02:07:13.480Z,10.70
2017-10-15T02:09:40.906Z,8.90
2017-10-15T02:12:08.770Z,9.97
2017-10-15T02:14:36.313Z,8.37
2017-10-15T02:17:03.786Z,10.80
2017-10-15T02:19:31.251Z,11.60
2017-10-15T02:21:58.703Z,9.20
2017-10-15T02:24:26.170Z,11.53
2017-10-15T02:26:54.458Z,10.13
2017-10-15T02:29:22.007Z,8.43
2017-10-15T02:31:49.585Z,10.00
2017-10-15T02:34:17.496Z,11.77
2017-10-15T02:36:45.343Z,10.47
2017-10-15T02:39:12.800Z,8.93
2017-10-15T02:41:40.276Z,7.00
2017-10-15T02:44:08.138Z,9.20
2017-10-15T02:46:35.993Z,9.33
2017-10-15T02:49:04.134Z,9.73
2017-10-15T02:51:31.593Z,8.03
2017-10-15T02:53:59.086Z,10.17
2017-10-15T02:56:26.557Z,9.23
2017-10-15T02:58:54.033Z,9.23
2017-10-15T03:01:21.471Z,7.40
2017-10-15T03:03:48.960Z,7.80
2017-10-15T03:06:16.418Z,8.43
2017-10-15T03:08:43.878Z,10.10
2017-10-15T03:11:12.272Z,8.60
2017-10-15T03:13:40.131Z,7.73
2017-10-15T03:16:07.740Z,9.23
2017-10-15T03:18:35.206Z,10.67
2017-10-15T03:21:02.692Z,9.00
2017-10-15T03:23:30.136Z,11.03
2017-10-15T03:25:57.638Z,10.33
2017-10-15T03:28:25.925Z,8.70
2017-10-15T03:30:53.382Z,9.10
2017-10-15T03:33:20.839Z,8.73
2017-10-15T03:35:48.309Z,9.47
2017-10-15T03:38:15.759Z,10.80
2017-10-15T03:40:43.215Z,8.70
2017-10-15T03:43:10.693Z,10.60
2017-10-15T03:45:38.167Z,7.63
2017-10-15T03:48:05.649Z,10.97
2017-10-15T03:50:33.120Z,8.97
2017-10-15T03:53:00.558Z,9.27
2017-10-15T03:55:28.438Z,11.23
2017-10-15T03:57:56.345Z,8.00
2017-10-15T04:00:23.802Z,7.30
2017-10-15T04:02:51.292Z,8.00
2017-10-15T04:05:20.186Z,8.97
2017-10-15T04:07:47.636Z,8.33
2017-10-15T04:10:15.104Z,11.70
2017-10-15T04:12:42.585Z,8.20
2017-10-15T04:15:10.049Z,14.30
2017-10-15T04:17:37.497Z,9.10
2017-10-15T04:20:04.956Z,7.90
2017-10-15T04:22:32.447Z,11.30
2017-10-15T04:25:00.013Z,8.97
2017-10-15T04:27:27.858Z,8.33
2017-10-15T04:29:55.321Z,8.70
2017-10-15T04:32:22.801Z,9.20
2017-10-15T04:34:50.262Z,9.93
2017-10-15T04:37:19.270Z,10.47
2017-10-15T04:39:46.729Z,9.50
2017-10-15T04:42:14.585Z,9.93
2017-10-15T04:44:42.095Z,8.83
2017-10-15T04:47:09.574Z,8.17
2017-10-15T04:49:37.073Z,10.77
2017-10-15T04:52:04.594Z,10.17
2017-10-15T04:54:32.092Z,7.60
2017-10-15T04:56:59.560Z,11.67
2017-10-15T04:59:27.072Z,7.80
2017-10-15T05:01:54.596Z,8.50
2017-10-15T05:04:22.142Z,8.37
2017-10-15T05:06:49.662Z,8.10
2017-10-15T05:09:17.133Z,9.33
2017-10-15T05:11:44.594Z,8.13
2017-10-15T05:14:12.081Z,9.60
2017-10-15T05:16:39.578Z,10.07
2017-10-15T05:19:07.011Z,9.27
2017-10-15T05:21:34.595Z,10.57
2017-10-15T05:24:03.383Z,12.90
2017-10-15T05:26:30.857Z,8.67
2017-10-15T05:28:58.737Z,7.77
2017-10-15T05:31:26.641Z,8.80
2017-10-15T05:33:54.132Z,11.30
2017-10-15T05:36:21.607Z,7.70
2017-10-15T05:38:49.087Z,9.83
2017-10-15T05:41:16.943Z,9.97
2017-10-15T05:43:44.540Z,9.67
2017-10-15T05:46:12.415Z,11.73
2017-10-15T05:48:39.899Z,14.00
2017-10-15T05:51:07.475Z,12.80
2017-10-15T05:53:34.981Z,19.97
2017-10-15T05:56:02.455Z,20.47
2017-10-15T05:58:30.332Z,26.23
2017-10-15T06:00:58.244Z,23.40
2017-10-15T06:03:25.716Z,22.60
2017-10-15T06:05:53.371Z,26.97
2017-10-15T06:08:20.876Z,33.27
2017-10-15T06:10:48.329Z,33.70
2017-10-15T06:13:15.824Z,26.53
2017-10-15T06:15:43.672Z,31.70
2017-10-15T06:18:11.124Z,29.40
2017-10-15T06:20:38.675Z,34.23
2017-10-15T06:23:06.143Z,44.30
2017-10-15T06:25:33.603Z,40.20
2017-10-15T06:28:01.103Z,35.73
2017-10-15T06:30:28.989Z,31.63
2017-10-15T06:32:56.440Z,43.47
2017-10-15T06:35:23.964Z,42.20
2017-10-15T06:37:51.434Z,38.27
2017-10-15T06:40:18.906Z,41.10
2017-10-15T06:42:46.438Z,55.17
2017-10-15T06:45:13.884Z,39.90
2017-10-15T06:47:41.333Z,45.03
2017-10-15T06:50:08.791Z,49.63
2017-10-15T06:52:36.286Z,43.53
2017-10-15T06:55:05.365Z,62.47
2017-10-15T06:57:32.849Z,43.87
2017-10-15T07:00:00.304Z,52.50
2017-10-15T07:02:27.742Z,53.30
2017-10-15T07:04:55.210Z,41.77
2017-10-15T07:07:22.663Z,44.43
2017-10-15T07:09:50.124Z,39.97
2017-10-15T07:12:17.572Z,51.53
2017-10-15T07:14:46.472Z,40.47
2017-10-15T07:17:14.429Z,48.67
2017-10-15T07:19:41.903Z,45.77
2017-10-15T07:22:09.772Z,45.30
2017-10-15T07:24:37.657Z,35.53
2017-10-15T07:27:05.659Z,39.80
2017-10-15T07:29:33.147Z,33.23
2017-10-15T07:32:00.964Z,28.60
2017-10-15T07:34:28.433Z,29.47
2017-10-15T07:36:55.966Z,38.57
2017-10-15T07:39:23.825Z,29.17
2017-10-15T07:41:51.709Z,30.40
2017-10-15T07:44:19.580Z,34.73
2017-10-15T07:46:47.474Z,31.60
2017-10-15T07:49:14.918Z,29.70
2017-10-15T07:51:42.753Z,30.30
2017-10-15T07:54:10.267Z,32.37
2017-10-15T07:56:38.123Z,31.00
2017-10-15T07:59:05.981Z,26.83
2017-10-15T08:01:33.455Z,28.73
2017-10-15T08:04:01.001Z,29.13
2017-10-15T08:06:28.670Z,34.83
2017-10-15T08:08:56.186Z,32.70
2017-10-15T08:11:23.678Z,34.30
2017-10-15T08:13:51.178Z,32.63
2017-10-15T08:16:19.037Z,32.50
2017-10-15T08:18:46.513Z,33.40
2017-10-15T08:21:16.233Z,39.90
2017-10-15T08:23:43.676Z,28.60
2017-10-15T08:26:11.530Z,35.03
2017-10-15T08:28:39.000Z,29.53
2017-10-15T08:31:06.476Z,38.37
2017-10-15T08:33:34.350Z,42.27
2017-10-15T08:36:02.231Z,36.43
2017-10-15T08:38:29.709Z,44.07
2017-10-15T08:40:57.237Z,44.20
2017-10-15T08:43:24.736Z,46.93
2017-10-15T08:45:52.172Z,39.50
2017-10-15T08:48:20.068Z,39.93
2017-10-15T08:50:47.535Z,41.20
2017-10-15T08:53:14.995Z,42.83
2017-10-15T08:55:42.482Z,50.23
2017-10-15T08:58:11.220Z,44.10
2017-10-15T09:00:38.699Z,40.13
2017-10-15T09:03:06.229Z,41.33
2017-10-15T09:05:33.778Z,43.80
2017-10-15T09:08:01.276Z,40.80
2017-10-15T09:10:29.145Z,47.07
2017-10-15T09:12:57.087Z,49.67
2017-10-15T09:15:25.617Z,46.33
2017-10-15T09:17:53.105Z,50.03
2017-10-15T09:20:20.560Z,40.97
2017-10-15T09:22:48.039Z,46.23
2017-10-15T09:25:15.542Z,48.57
2017-10-15T09:27:43.425Z,42.03
2017-10-15T09:30:11.350Z,42.30
2017-10-15T09:32:39.147Z,49.00
2017-10-15T09:35:06.645Z,50.80
2017-10-15T09:37:34.124Z,54.93
2017-10-15T09:40:01.679Z,49.10
2017-10-15T09:42:29.318Z,47.07
2017-10-15T09:44:57.272Z,49.00
2017-10-15T09:47:24.749Z,55.93
2017-10-15T09:49:52.992Z,53.47
2017-10-15T09:52:20.807Z,51.70
2017-10-15T09:54:48.464Z,51.17
2017-10-15T09:57:16.334Z,46.17
2017-10-15T09:59:43.840Z,49.17
2017-10-15T10:02:11.366Z,46.33
2017-10-15T10:04:39.316Z,42.23
2017-10-15T10:07:06.840Z,46.97
2017-10-15T10:09:35.323Z,40.93
2017-10-15T10:12:02.943Z,38.70
2017-10-15T10:14:30.555Z,36.60
2017-10-15T10:16:58.098Z,41.50
2017-10-15T10:19:26.015Z,39.20
2017-10-15T10:21:53.487Z,43.33
2017-10-15T10:24:21.009Z,38.07
2017-10-15T10:26:48.458Z,40.87
2017-10-15T10:29:15.969Z,53.30
2017-10-15T10:31:43.532Z,43.93
2017-10-15T10:34:11.043Z,41.47
2017-10-15T10:36:38.958Z,41.73
2017-10-15T10:39:06.578Z,46.27
2017-10-15T10:41:34.529Z,42.40
2017-10-15T10:44:02.109Z,43.90
2017-10-15T10:46:29.957Z,42.47
2017-10-15T10:48:57.492Z,43.70
2017-10-15T10:51:25.009Z,43.77
2017-10-15T10:53:52.883Z,44.10
2017-10-15T10:56:20.388Z,44.27
2017-10-15T10:58:47.996Z,44.57
2017-10-15T11:01:15.446Z,45.07
2017-10-15T11:03:42.923Z,51.90
2017-10-15T11:06:10.487Z,46.30
2017-10-15T11:08:39.777Z,45.83
2017-10-15T11:11:07.276Z,51.00
2017-10-15T11:13:35.263Z,43.20
2017-10-15T11:16:02.712Z,47.27
2017-10-15T11:18:30.378Z,39.77
2017-10-15T11:20:57.876Z,48.47
2017-10-15T11:23:25.536Z,47.80
2017-10-15T11:25:53.109Z,48.20
2017-10-15T11:28:20.592Z,52.60
2017-10-15T11:30:48.153Z,45.60
2017-10-15T11:33:15.642Z,48.93
2017-10-15T11:35:43.103Z,52.67
2017-10-15T11:38:10.983Z,53.40
2017-10-15T11:40:38.861Z,48.70
2017-10-15T11:43:06.751Z,60.13
2017-10-15T11:45:36.672Z,53.70
2017-10-15T11:48:04.187Z,57.73
2017-10-15T11:50:31.744Z,55.80
2017-10-15T11:52:59.214Z,62.10
2017-10-15T11:55:26.640Z,58.53
2017-10-15T11:57:54.096Z,56.40
2017-10-15T12:00:21.562Z,69.07
2017-10-15T12:02:49.020Z,71.17
2017-10-15T12:05:16.517Z,56.60
2017-10-15T12:07:43.956Z,64.80
2017-10-15T12:10:11.430Z,60.13
2017-10-15T12:12:38.880Z,57.50
2017-10-15T12:15:06.333Z,66.47
2017-10-15T12:17:33.767Z,59.90
2017-10-15T12:20:01.260Z,69.57
2017-10-15T12:22:28.696Z,67.10
2017-10-15T12:24:56.183Z,69.20
2017-10-15T12:27:24.104Z,66.77
2017-10-15T12:29:51.956Z,64.70
2017-10-15T12:32:19.454Z,64.00
2017-10-15T12:34:47.506Z,67.50
2017-10-15T12:37:14.987Z,69.97
2017-10-15T12:39:42.912Z,62.23
2017-10-15T12:42:10.356Z,69.60
2017-10-15T12:44:37.784Z,70.90
2017-10-15T12:47:05.238Z,61.40
2017-10-15T12:49:32.679Z,68.77
2017-10-15T12:52:01.642Z,63.40
2017-10-15T12:54:29.127Z,62.47
2017-10-15T12:56:56.575Z,69.63
2017-10-15T12:59:24.349Z,62.60
2017-10-15T13:01:51.946Z,67.43
2017-10-15T13:04:19.882Z,85.60
2017-10-15T13:06:47.422Z,70.60
2017-10-15T13:09:14.905Z,69.93
2017-10-15T13:11:42.409Z,70.60
2017-10-15T13:14:09.879Z,70.70
2017-10-15T13:16:37.915Z,68.20
2017-10-15T13:19:05.417Z,68.27
2017-10-15T13:21:33.288Z,70.63
2017-10-15T13:24:00.748Z,73.20
2017-10-15T13:26:28.656Z,68.13
2017-10-15T13:28:56.225Z,71.93
2017-10-15T13:31:23.741Z,61.30
2017-10-15T13:33:51.661Z,61.63
2017-10-15T13:36:19.129Z,72.67
2017-10-15T13:38:46.641Z,64.27
2017-10-15T13:41:14.700Z,60.30
2017-10-15T13:43:42.154Z,61.20
2017-10-15T13:46:09.637Z,64.40
2017-10-15T13:48:37.704Z,70.03
2017-10-15T13:51:05.257Z,66.03
2017-10-15T13:53:32.747Z,57.70
2017-10-15T13:56:00.652Z,59.77
2017-10-15T13:58:28.168Z,65.00
2017-10-15T14:00:55.679Z,57.00
2017-10-15T14:03:23.346Z,65.70
2017-10-15T14:05:50.803Z,55.63
2017-10-15T14:08:18.326Z,61.00
2017-10-15T14:10:46.749Z,57.60
2017-10-15T14:13:14.282Z,61.50
2017-10-15T14:15:41.788Z,61.57
2017-10-15T14:18:09.312Z,56.87
2017-10-15T14:20:37.452Z,58.40
2017-10-15T14:23:04.965Z,58.57
2017-10-15T14:25:32.465Z,55.73
2017-10-15T14:27:59.929Z,57.70
2017-10-15T14:30:27.420Z,59.40
2017-10-15T14:32:54.896Z,51.50
2017-10-15T14:35:22.366Z,63.93
2017-10-15T14:37:50.237Z,61.40
2017-10-15T14:40:18.127Z,54.43
2017-10-15T14:42:45.603Z,65.50
2017-10-15T14:45:13.101Z,52.73
2017-10-15T14:47:40.534Z,55.93
2017-10-15T14:50:07.994Z,51.20
2017-10-15T14:52:35.456Z,56.63
2017-10-15T14:55:06.789Z,51.77
2017-10-15T14:57:34.370Z,52.23
2017-10-15T15:00:01.816Z,54.23
2017-10-15T15:02:29.288Z,56.20
2017-10-15T15:04:56.783Z,50.30
2017-10-15T15:07:24.316Z,59.10
2017-10-15T15:09:51.786Z,51.70
2017-10-15T15:12:19.285Z,52.10
2017-10-15T15:14:47.198Z,57.13
2017-10-15T15:17:14.645Z,51.03
2017-10-15T15:19:42.493Z,55.07
2017-10-15T15:22:09.990Z,54.37
2017-10-15T15:24:37.452Z,61.30
2017-10-15T15:27:04.910Z,52.37
2017-10-15T15:29:33.589Z,54.90
2017-10-15T15:32:01.471Z,49.17
2017-10-15T15:34:29.389Z,57.60
2017-10-15T15:36:56.861Z,53.87
2017-10-15T15:39:24.323Z,53.67
2017-10-15T15:41:51.772Z,53.50
2017-10-15T15:44:19.350Z,52.70
2017-10-15T15:46:46.806Z,56.47
2017-10-15T15:49:14.269Z,55.03
2017-10-15T15:51:41.786Z,52.27
2017-10-15T15:54:09.257Z,49.13
2017-10-15T15:56:37.220Z,50.73
2017-10-15T15:59:04.814Z,56.07
2017-10-15T16:01:32.314Z,47.13
2017-10-15T16:03:59.826Z,47.53
2017-10-15T16:06:27.285Z,57.00
2017-10-15T16:08:54.717Z,53.30
2017-10-15T16:11:22.575Z,57.13
2017-10-15T16:13:50.008Z,49.27
2017-10-15T16:16:17.460Z,54.70
2017-10-15T16:18:44.892Z,53.70
2017-10-15T16:21:12.333Z,55.47
2017-10-15T16:23:40.173Z,59.80
2017-10-15T16:26:07.737Z,65.77
2017-10-15T16:28:35.160Z,57.40
2017-10-15T16:31:02.603Z,52.90
2017-10-15T16:33:30.085Z,59.30
2017-10-15T16:35:57.523Z,50.83
2017-10-15T16:38:25.338Z,60.60
2017-10-15T16:40:52.816Z,60.03
2017-10-15T16:43:20.245Z,56.07
2017-10-15T16:45:47.683Z,49.33
2017-10-15T16:48:15.159Z,59.17
2017-10-15T16:50:42.599Z,61.77
2017-10-15T16:53:10.495Z,58.60
2017-10-15T16:55:37.952Z,58.53
2017-10-15T16:58:05.378Z,53.63
2017-10-15T17:00:33.268Z,51.40
2017-10-15T17:03:01.123Z,59.63
2017-10-15T17:05:28.525Z,53.27
2017-10-15T17:07:55.986Z,56.60
2017-10-15T17:10:23.625Z,51.13
2017-10-15T17:12:51.048Z,57.90
2017-10-15T17:15:18.495Z,52.50
2017-10-15T17:17:45.920Z,59.07
2017-10-15T17:20:13.363Z,54.03
2017-10-15T17:22:41.215Z,54.90
2017-10-15T17:25:08.635Z,51.07
2017-10-15T17:27:36.300Z,62.07
2017-10-15T17:30:04.694Z,59.10
2017-10-15T17:32:32.171Z,53.37
2017-10-15T17:35:00.734Z,55.47
2017-10-15T17:37:28.230Z,60.30
2017-10-15T17:39:55.650Z,53.70
2017-10-15T17:42:24.706Z,55.67
2017-10-15T17:44:52.285Z,52.57
2017-10-15T17:47:20.158Z,53.73
2017-10-15T17:49:58.987Z,56.13
2017-10-15T17:52:26.851Z,51.10
2017-10-15T17:54:57.055Z,56.23
2017-10-15T17:57:24.575Z,53.63
2017-10-15T17:59:52.156Z,49.73
2017-10-15T18:02:26.916Z,56.03
2017-10-15T18:04:54.355Z,54.33
2017-10-15T18:07:21.883Z,57.60
2017-10-15T18:09:49.297Z,47.40
2017-10-15T18:12:16.832Z,50.17
2017-10-15T18:14:44.257Z,47.43
2017-10-15T18:17:11.718Z,43.80
2017-10-15T18:19:40.328Z,48.47
2017-10-15T18:22:07.749Z,46.97
2017-10-15T18:24:35.669Z,50.47
2017-10-15T18:27:03.134Z,44.43
2017-10-15T18:29:30.587Z,48.07
2017-10-15T18:31:58.095Z,53.83
2017-10-15T18:34:25.538Z,42.50
2017-10-15T18:36:52.974Z,50.90
2017-10-15T18:39:20.419Z,50.33
2017-10-15T18:41:47.839Z,46.53
2017-10-15T18:44:15.358Z,46.10
2017-10-15T18:46:42.785Z,48.13
2017-10-15T18:49:10.208Z,48.83
2017-10-15T18:51:37.663Z,50.57
2017-10-15T18:54:05.089Z,46.90
2017-10-15T18:56:32.514Z,51.13
2017-10-15T18:59:00.863Z,47.33
2017-10-15T19:01:28.288Z,45.30
2017-10-15T19:03:55.717Z,51.40
2017-10-15T19:06:23.556Z,49.57
2017-10-15T19:08:50.996Z,49.10
2017-10-15T19:11:18.449Z,52.23
2017-10-15T19:13:45.895Z,51.73
2017-10-15T19:16:13.908Z,56.80
2017-10-15T19:18:41.365Z,49.30
2017-10-15T19:21:08.807Z,54.17
2017-10-15T19:23:36.224Z,55.40
2017-10-15T19:26:04.152Z,53.30
2017-10-15T19:28:31.604Z,52.93
2017-10-15T19:30:59.027Z,49.83
2017-10-15T19:33:26.853Z,49.77
2017-10-15T19:35:54.301Z,47.93
2017-10-15T19:38:21.791Z,47.80
2017-10-15T19:40:49.211Z,50.77
2017-10-15T19:43:17.048Z,51.07
2017-10-15T19:45:44.475Z,54.93
2017-10-15T19:48:11.916Z,47.70
2017-10-15T19:50:39.356Z,53.50
2017-10-15T19:53:06.791Z,52.50
2017-10-15T19:55:34.295Z,52.13
2017-10-15T19:58:01.740Z,49.23
2017-10-15T20:00:29.177Z,51.87
2017-10-15T20:02:56.596Z,51.70
2017-10-15T20:05:24.037Z,62.60
2017-10-15T20:07:51.463Z,55.17
2017-10-15T20:10:19.292Z,59.23
2017-10-15T20:12:46.755Z,63.80
2017-10-15T20:15:14.201Z,50.50
2017-10-15T20:17:41.627Z,52.10
2017-10-15T20:20:09.529Z,55.30
2017-10-15T20:22:37.028Z,53.50
2017-10-15T20:25:04.557Z,56.40
2017-10-15T20:27:31.993Z,53.53
2017-10-15T20:30:00.005Z,52.77
2017-10-15T20:32:27.428Z,57.30
2017-10-15T20:34:55.411Z,48.47
2017-10-15T20:37:22.873Z,50.40
2017-10-15T20:39:50.272Z,56.40
2017-10-15T20:42:17.695Z,56.23
2017-10-15T20:44:45.117Z,54.20
2017-10-15T20:47:13.928Z,49.00
2017-10-15T20:49:41.479Z,54.30
2017-10-15T20:52:09.359Z,67.30
2017-10-15T20:54:37.276Z,67.27
2017-10-15T20:57:04.931Z,62.03
2017-10-15T20:59:32.418Z,51.63
2017-10-15T21:01:59.901Z,55.37
2017-10-15T21:04:27.369Z,54.70
2017-10-15T21:06:54.801Z,48.90
2017-10-15T21:09:22.228Z,50.00
2017-10-15T21:11:49.696Z,48.57
2017-10-15T21:14:17.253Z,51.80
2017-10-15T21:16:45.083Z,52.50
2017-10-15T21:19:12.605Z,47.57
2017-10-15T21:21:40.033Z,48.10
2017-10-15T21:24:07.456Z,51.00
2017-10-15T21:26:34.908Z,49.83
2017-10-15T21:29:02.337Z,52.10
2017-10-15T21:31:29.759Z,48.30
2017-10-15T21:33:57.197Z,47.83
2017-10-15T21:36:24.637Z,52.53
2017-10-15T21:38:52.637Z,49.97
2017-10-15T21:41:20.079Z,56.40
2017-10-15T21:43:47.512Z,45.97
2017-10-15T21:46:15.006Z,41.60
2017-10-15T21:48:43.971Z,51.07
2017-10-15T21:51:11.402Z,45.13
2017-10-15T21:53:38.922Z,47.13
2017-10-15T21:56:06.362Z,44.33
2017-10-15T21:58:33.794Z,46.40
2017-10-15T22:01:01.217Z,48.60
2017-10-15T22:03:28.649Z,47.37
2017-10-15T22:05:56.080Z,44.57
2017-10-15T22:08:23.500Z,48.47
2017-10-15T22:10:50.931Z,50.00
2017-10-15T22:13:18.411Z,42.07
2017-10-15T22:15:45.877Z,43.80
2017-10-15T22:18:19.090Z,49.67
2017-10-15T22:21:04.367Z,44.10
2017-10-15T22:23:31.824Z,45.70
2017-10-15T22:25:59.648Z,44.70
2017-10-15T22:28:27.076Z,46.23
2017-10-15T22:30:54.618Z,46.10
2017-10-15T22:33:22.047Z,43.80
2017-10-15T22:35:49.499Z,52.93
2017-10-15T22:38:16.916Z,46.27
2017-10-15T22:40:44.444Z,42.37
2017-10-15T22:43:12.023Z,44.03
2017-10-15T22:45:39.440Z,45.77
2017-10-15T22:48:06.871Z,50.90
2017-10-15T22:50:34.403Z,38.87
2017-10-15T22:53:01.847Z,42.40
2017-10-15T22:55:29.273Z,44.67
2017-10-15T22:57:57.129Z,46.70
2017-10-15T23:00:24.580Z,42.07
2017-10-15T23:02:52.114Z,33.40
2017-10-15T23:05:19.769Z,34.83
2017-10-15T23:07:47.242Z,38.80
2017-10-15T23:10:14.717Z,40.10
2017-10-15T23:12:42.145Z,38.47
2017-10-15T23:15:09.589Z,40.23
2017-10-15T23:17:37.450Z,40.33
2017-10-15T23:20:05.296Z,37.20
2017-10-15T23:22:32.836Z,44.23
2017-10-15T23:25:00.311Z,56.43
2017-10-15T23:27:27.748Z,47.80
2017-10-15T23:29:55.207Z,51.73
2017-10-15T23:32:22.661Z,47.17
2017-10-15T23:34:50.109Z,50.00
2017-10-15T23:37:18.018Z,57.57
2017-10-15T23:39:45.572Z,51.27
2017-10-15T23:42:13.005Z,58.73
2017-10-15T23:44:40.852Z,54.27
2017-10-15T23:47:09.509Z,51.77
2017-10-15T23:49:37.051Z,46.37
2017-10-15T23:52:04.481Z,54.80
2017-10-15T23:54:32.492Z,51.13
2017-10-15T23:56:59.936Z,57.30
2017-10-15T23:59:27.383Z,72.10
